Alida, Minnesota
Current Conditions -  °F | °C
As of 10:33 PM on Wednesday 22 Oct 2014 (Local Time) from KBJI Reporting Station
Overcast Overcast  
Wind Chill: 53°   Ceiling: 2500
Heat Index: 53°   Visibility: 10mi
Dew Point: 46°   Wind: 10mph
Humidity: 78%   Direction: 180°S
Pressure: 29.91"   Gusts: NA
Location:  47.4609°N, 95.2384°W
Report Text: KBJI 230333Z AUTO 18009KT 10SM OVC025 12/08 A2991 RMK AO2 T01180080
Loading
Personal Weather Stations






























Interactive Weather Map New forecast layout! Learn more

10-Day Weather Forecast

Advertisements
Track Severe Weather on mobile